Time;durP1;ratioP1;P1;durP2;ratioP2;P2;SDS_P1;SDS_P2;PMS_P1;PMS_P2;Temp;Humidity;BMP_temperature;BMP_pressure;BME280_temperature;BME280_humidity;BME280_pressure;Samples;Min_cycle;Max_cycle;Signal;HPM_P1;HPM_P2
2023/04/03 00:02:06;;;;;;;4.25;2.03;;;;;;;;;;5044461;28;20067;-64
2023/04/03 00:04:31;;;;;;;3.20;1.80;;;;;;;;;;5044613;28;20033;-64
2023/04/03 00:06:57;;;;;;;3.47;1.67;;;;;;;;;;5044412;28;20292;-66
2023/04/03 00:09:22;;;;;;;2.77;1.70;;;;;;;;;;5042319;28;20307;-67
2023/04/03 00:11:47;;;;;;;3.10;1.83;;;;;;;;;;5040389;28;21115;-65
2023/04/03 00:14:12;;;;;;;4.13;1.73;;;;;;;;;;5043149;28;20635;-65
2023/04/03 00:16:37;;;;;;;3.03;1.60;;;;;;;;;;5045252;28;20435;-65
2023/04/03 00:19:03;;;;;;;2.57;1.77;;;;;;;;;;5043957;28;20472;-65
2023/04/03 00:21:28;;;;;;;3.22;1.67;;;;;;;;;;5043104;28;20397;-65
2023/04/03 00:23:53;;;;;;;3.30;1.80;;;;;;;;;;5043690;28;20037;-64
2023/04/03 00:26:18;;;;;;;3.37;1.70;;;;;;;;;;5051912;28;20110;-63
2023/04/03 00:28:44;;;;;;;2.87;1.87;;;;;;;;;;5042404;28;20318;-63
2023/04/03 00:31:09;;;;;;;2.97;1.75;;;;;;;;;;5039207;28;20562;-63
2023/04/03 00:33:34;;;;;;;3.15;1.85;;;;;;;;;;5042036;28;20044;-64
2023/04/03 00:36:05;;;;;;;3.58;2.05;;;;;;;;;;5040404;28;20041;-67
2023/04/03 00:38:30;;;;;;;;;;;;;;;;;;5041853;28;20524;-64
2023/04/03 00:40:55;;;;;;;3.20;1.50;;;;;;;;;;5039887;28;19970;-66
2023/04/03 00:43:21;;;;;;;2.43;1.70;;;;;;;;;;5041254;28;20033;-64
2023/04/03 00:45:50;;;;;;;3.22;1.70;;;;;;;;;;5042154;28;20275;-64
2023/04/03 00:48:20;;;;;;;3.22;1.65;;;;;;;;;;5024374;28;20064;-66
2023/04/03 00:50:45;;;;;;;2.45;1.42;;;;;;;;;;5012148;28;20033;-66
2023/04/03 00:53:12;;;;;;;2.63;1.48;;;;;;;;;;5044122;28;20511;-64
2023/04/03 00:55:37;;;;;;;3.03;1.65;;;;;;;;;;5036372;28;20377;-65
2023/04/03 00:58:02;;;;;;;2.75;1.63;;;;;;;;;;5044513;28;20036;-63
2023/04/03 01:00:28;;;;;;;3.73;1.70;;;;;;;;;;5026908;28;20024;-65
2023/04/03 01:02:53;;;;;;;2.97;1.60;;;;;;;;;;5041862;28;20340;-65
2023/04/03 01:05:19;;;;;;;2.60;1.40;;;;;;;;;;5044425;28;20017;-65
2023/04/03 01:07:44;;;;;;;2.55;1.63;;;;;;;;;;5032500;28;20833;-64
2023/04/03 01:10:10;;;;;;;3.03;1.60;;;;;;;;;;5024438;28;20568;-63
2023/04/03 01:12:38;;;;;;;2.72;1.58;;;;;;;;;;5043970;28;20021;-66
2023/04/03 01:15:07;;;;;;;2.28;1.58;;;;;;;;;;5044324;28;20032;-64
2023/04/03 01:17:36;;;;;;;2.38;1.50;;;;;;;;;;5044073;28;20551;-64
2023/04/03 01:20:19;;;;;;;2.63;1.60;;;;;;;;;;5044830;28;20116;-66
2023/04/03 01:23:05;;;;;;;3.08;1.73;;;;;;;;;;5044740;28;20040;-64
2023/04/03 01:25:30;;;;;;;2.63;1.60;;;;;;;;;;5040702;28;20034;-64
2023/04/03 01:27:55;;;;;;;2.17;1.23;;;;;;;;;;5031814;28;20068;-65
2023/04/03 01:30:21;;;;;;;3.33;1.80;;;;;;;;;;5038066;28;20287;-65
2023/04/03 01:32:46;;;;;;;2.95;1.67;;;;;;;;;;5029384;28;20843;-66
2023/04/03 01:35:11;;;;;;;2.47;1.50;;;;;;;;;;5042071;28;20537;-63
2023/04/03 01:37:37;;;;;;;2.67;1.60;;;;;;;;;;5037177;28;20276;-65
2023/04/03 01:40:02;;;;;;;3.00;1.73;;;;;;;;;;5041679;28;20041;-66
2023/04/03 01:42:28;;;;;;;2.00;1.40;;;;;;;;;;5026165;28;20275;-64
2023/04/03 01:44:53;;;;;;;2.78;1.55;;;;;;;;;;5043776;28;20025;-63
2023/04/03 01:47:18;;;;;;;3.33;1.98;;;;;;;;;;5040480;28;20124;-66
2023/04/03 01:49:43;;;;;;;2.53;1.47;;;;;;;;;;5040688;28;20037;-64
2023/04/03 01:52:09;;;;;;;3.40;1.73;;;;;;;;;;5034994;28;20029;-64
2023/04/03 01:54:34;;;;;;;2.03;1.27;;;;;;;;;;5020311;28;20080;-65
2023/04/03 01:56:59;;;;;;;2.65;1.50;;;;;;;;;;5033346;28;20318;-63
2023/04/03 01:59:25;;;;;;;2.47;1.45;;;;;;;;;;5043552;28;20021;-63
2023/04/03 02:01:50;;;;;;;2.42;1.40;;;;;;;;;;5043675;28;20029;-64
2023/04/03 02:04:15;;;;;;;2.60;1.58;;;;;;;;;;5042891;28;20048;-64
2023/04/03 02:06:40;;;;;;;2.60;1.67;;;;;;;;;;5043386;28;20406;-66
2023/04/03 02:09:06;;;;;;;2.20;1.43;;;;;;;;;;5008697;28;20326;-63
2023/04/03 02:11:31;;;;;;;2.22;1.33;;;;;;;;;;5042920;28;20374;-64
2023/04/03 02:13:57;;;;;;;2.40;1.50;;;;;;;;;;5026143;28;20033;-64
2023/04/03 02:16:22;;;;;;;2.40;1.40;;;;;;;;;;5043453;28;20291;-65
2023/04/03 02:18:47;;;;;;;2.67;1.38;;;;;;;;;;5005274;28;20353;-66
2023/04/03 02:21:12;;;;;;;3.07;1.60;;;;;;;;;;5043043;28;20055;-64
2023/04/03 02:23:38;;;;;;;2.97;1.40;;;;;;;;;;5043239;28;20310;-64
2023/04/03 02:26:07;;;;;;;2.47;1.48;;;;;;;;;;5042607;28;20049;-64
2023/04/03 02:28:32;;;;;;;2.63;1.52;;;;;;;;;;4997266;28;20053;-64
2023/04/03 02:30:58;;;;;;;3.25;1.77;;;;;;;;;;5023112;28;20566;-66
2023/04/03 02:33:23;;;;;;;2.50;1.50;;;;;;;;;;5038000;28;20029;-65
2023/04/03 02:35:52;;;;;;;2.43;1.30;;;;;;;;;;5025510;28;20037;-65
2023/04/03 02:38:18;;;;;;;2.67;1.73;;;;;;;;;;5034071;28;20350;-65
2023/04/03 02:40:43;;;;;;;2.40;1.52;;;;;;;;;;5034347;28;20288;-67
2023/04/03 02:43:08;;;;;;;2.13;1.43;;;;;;;;;;5042631;28;20477;-66
2023/04/03 02:45:34;;;;;;;2.60;1.50;;;;;;;;;;5042805;28;20714;-64
2023/04/03 02:47:59;;;;;;;1.65;1.20;;;;;;;;;;5032659;28;20300;-62
2023/04/03 02:50:24;;;;;;;2.30;1.20;;;;;;;;;;5043295;28;20113;-64
2023/04/03 02:52:49;;;;;;;2.38;1.30;;;;;;;;;;5025037;28;20061;-63
2023/04/03 02:55:15;;;;;;;2.37;1.40;;;;;;;;;;5042358;28;20037;-65
2023/04/03 02:57:41;;;;;;;3.28;1.67;;;;;;;;;;5035112;28;20117;-65
2023/04/03 03:00:06;;;;;;;2.75;1.55;;;;;;;;;;5036415;28;20125;-64
2023/04/03 03:02:31;;;;;;;2.00;1.40;;;;;;;;;;5042176;28;20124;-64
2023/04/03 03:04:57;;;;;;;2.83;1.33;;;;;;;;;;5025207;28;20044;-64
2023/04/03 03:07:22;;;;;;;2.37;1.40;;;;;;;;;;5037496;28;20296;-66
2023/04/03 03:09:47;;;;;;;2.37;1.57;;;;;;;;;;5025517;28;20414;-64
2023/04/03 03:12:12;;;;;;;2.63;1.40;;;;;;;;;;5040741;28;20921;-63
2023/04/03 03:14:38;;;;;;;2.45;1.48;;;;;;;;;;5008489;28;20033;-64
2023/04/03 03:17:03;;;;;;;2.50;1.13;;;;;;;;;;5045507;28;20505;-63
2023/04/03 03:19:28;;;;;;;1.63;1.10;;;;;;;;;;5046980;28;20528;-64
2023/04/03 03:21:53;;;;;;;2.20;1.27;;;;;;;;;;5046633;28;20272;-65
2023/04/03 03:24:19;;;;;;;2.30;1.30;;;;;;;;;;5046008;28;20033;-64
2023/04/03 03:26:44;;;;;;;2.33;1.30;;;;;;;;;;5046027;28;20048;-67
2023/04/03 03:29:09;;;;;;;1.70;1.20;;;;;;;;;;5047790;28;20049;-64
2023/04/03 03:31:35;;;;;;;2.53;1.40;;;;;;;;;;5038446;28;20041;-63
2023/04/03 03:34:00;;;;;;;2.00;1.20;;;;;;;;;;5048818;28;20622;-68
2023/04/03 03:36:25;;;;;;;1.88;1.25;;;;;;;;;;5013684;28;20029;-63
2023/04/03 03:38:50;;;;;;;1.63;1.20;;;;;;;;;;5044615;28;20542;-65
2023/04/03 03:41:16;;;;;;;2.00;1.27;;;;;;;;;;5044638;28;20505;-62
2023/04/03 03:43:41;;;;;;;1.60;1.10;;;;;;;;;;5047028;28;20497;-65
2023/04/03 03:46:06;;;;;;;2.88;1.55;;;;;;;;;;5048139;28;20654;-65
2023/04/03 03:48:31;;;;;;;2.73;1.50;;;;;;;;;;5045482;28;20547;-65
2023/04/03 03:50:57;;;;;;;2.00;1.23;;;;;;;;;;5035721;28;20061;-64
2023/04/03 03:53:22;;;;;;;1.90;1.40;;;;;;;;;;5046119;28;20763;-65
2023/04/03 03:55:47;;;;;;;2.55;1.20;;;;;;;;;;5045950;28;20310;-65
2023/04/03 03:58:12;;;;;;;1.83;1.20;;;;;;;;;;5034509;28;20531;-66
2023/04/03 04:00:38;;;;;;;2.17;1.37;;;;;;;;;;5044641;28;20288;-66
2023/04/03 04:03:03;;;;;;;2.20;1.13;;;;;;;;;;5045828;28;20382;-65
2023/04/03 04:05:28;;;;;;;2.42;1.30;;;;;;;;;;5029704;28;20322;-67
2023/04/03 04:07:53;;;;;;;2.10;1.23;;;;;;;;;;5007721;28;20139;-65
2023/04/03 04:10:19;;;;;;;2.20;1.40;;;;;;;;;;5040416;28;20309;-64
2023/04/03 04:12:44;;;;;;;2.17;1.45;;;;;;;;;;5036497;28;20292;-64
2023/04/03 04:15:09;;;;;;;2.55;1.40;;;;;;;;;;5040775;28;20575;-65
2023/04/03 04:17:35;;;;;;;2.00;1.30;;;;;;;;;;5020210;28;20132;-65
2023/04/03 04:20:00;;;;;;;2.53;1.20;;;;;;;;;;5011506;28;20041;-65
2023/04/03 04:22:25;;;;;;;2.22;1.23;;;;;;;;;;5019467;28;20037;-64
2023/04/03 04:24:51;;;;;;;2.67;1.47;;;;;;;;;;5038223;28;20068;-69
2023/04/03 04:27:16;;;;;;;1.98;1.10;;;;;;;;;;5034331;28;20295;-68
2023/04/03 04:29:41;;;;;;;1.70;1.08;;;;;;;;;;5036418;28;20370;-64
2023/04/03 04:32:08;;;;;;;2.50;1.13;;;;;;;;;;5036896;28;20064;-63
2023/04/03 04:34:33;;;;;;;2.25;1.23;;;;;;;;;;5036905;28;20361;-65
2023/04/03 04:36:59;;;;;;;2.33;1.23;;;;;;;;;;5036554;28;20033;-63
2023/04/03 04:39:24;;;;;;;1.98;1.30;;;;;;;;;;5037295;28;20041;-66
2023/04/03 04:41:49;;;;;;;1.97;1.30;;;;;;;;;;5035619;28;20037;-65
2023/04/03 04:44:15;;;;;;;1.87;1.20;;;;;;;;;;5036953;28;20335;-66
2023/04/03 04:46:40;;;;;;;2.38;1.27;;;;;;;;;;5036565;28;20068;-64
2023/04/03 04:49:05;;;;;;;1.87;1.13;;;;;;;;;;5035914;28;20071;-69
2023/04/03 04:51:30;;;;;;;2.47;1.23;;;;;;;;;;5018915;28;20868;-65
2023/04/03 04:53:56;;;;;;;2.00;1.30;;;;;;;;;;5035596;28;20033;-64
2023/04/03 04:56:21;;;;;;;2.10;1.40;;;;;;;;;;5036320;28;20362;-64
2023/04/03 04:58:46;;;;;;;2.00;1.25;;;;;;;;;;5037341;28;20041;-64
2023/04/03 05:01:12;;;;;;;8.83;1.60;;;;;;;;;;5017352;28;20477;-65
2023/04/03 05:03:37;;;;;;;47.03;4.37;;;;;;;;;;5036098;28;20283;-65
2023/04/03 05:06:02;;;;;;;28.87;3.47;;;;;;;;;;5035892;28;20398;-65
2023/04/03 05:08:28;;;;;;;22.85;3.20;;;;;;;;;;5037061;28;20318;-62
2023/04/03 05:10:53;;;;;;;32.33;3.83;;;;;;;;;;5035517;28;20076;-65
2023/04/03 05:13:18;;;;;;;27.30;3.10;;;;;;;;;;5017053;28;20303;-67
2023/04/03 05:15:44;;;;;;;23.90;3.50;;;;;;;;;;5034459;28;20037;-65
2023/04/03 05:18:09;;;;;;;23.48;3.03;;;;;;;;;;5036271;28;20041;-66
2023/04/03 05:20:34;;;;;;;26.80;4.43;;;;;;;;;;5035224;28;20036;-69
2023/04/03 05:22:59;;;;;;;21.83;3.33;;;;;;;;;;5036620;28;20064;-64
2023/04/03 05:25:25;;;;;;;19.35;3.40;;;;;;;;;;5036260;28;20493;-64
2023/04/03 05:27:50;;;;;;;24.70;3.23;;;;;;;;;;5035765;28;20147;-64
2023/04/03 05:30:15;;;;;;;22.87;3.37;;;;;;;;;;5037566;28;20040;-66
2023/04/03 05:32:41;;;;;;;28.40;3.60;;;;;;;;;;5036839;28;20294;-63
2023/04/03 05:35:07;;;;;;;16.50;2.88;;;;;;;;;;5035811;28;20064;-64
2023/04/03 05:37:32;;;;;;;21.85;3.13;;;;;;;;;;5035434;28;20079;-64
2023/04/03 05:39:57;;;;;;;24.42;3.25;;;;;;;;;;5035875;28;20698;-63
2023/04/03 05:42:24;;;;;;;23.98;4.13;;;;;;;;;;5038588;28;20053;-63
2023/04/03 05:44:50;;;;;;;21.10;3.30;;;;;;;;;;5037263;28;20040;-62
2023/04/03 05:47:15;;;;;;;24.35;3.30;;;;;;;;;;5013645;28;20060;-62
2023/04/03 05:49:40;;;;;;;19.02;3.35;;;;;;;;;;5038816;28;20135;-64
2023/04/03 05:52:08;;;;;;;23.27;3.47;;;;;;;;;;5036883;28;20421;-62
2023/04/03 05:54:33;;;;;;;24.25;3.55;;;;;;;;;;5017047;28;20396;-62
2023/04/03 05:56:59;;;;;;;20.50;3.33;;;;;;;;;;5033601;28;20037;-63
2023/04/03 05:59:24;;;;;;;26.15;3.78;;;;;;;;;;5035576;28;20299;-63
2023/04/03 06:01:50;;;;;;;23.17;3.45;;;;;;;;;;5035695;28;20044;-63
2023/04/03 06:04:15;;;;;;;15.17;2.47;;;;;;;;;;5036178;28;20037;-63
2023/04/03 06:06:51;;;;;;;17.80;3.30;;;;;;;;;;5027851;28;20399;-63
2023/04/03 06:09:16;;;;;;;16.13;3.55;;;;;;;;;;5035290;28;20083;-64
2023/04/03 06:11:41;;;;;;;20.92;3.75;;;;;;;;;;5033071;28;20155;-63
2023/04/03 06:14:07;;;;;;;19.90;3.73;;;;;;;;;;5035800;28;20434;-65
2023/04/03 06:16:33;;;;;;;16.17;3.53;;;;;;;;;;4995854;28;20761;-63
2023/04/03 06:18:58;;;;;;;17.60;3.72;;;;;;;;;;5017064;28;20097;-63
2023/04/03 06:21:24;;;;;;;20.27;4.03;;;;;;;;;;5039849;28;20529;-63
2023/04/03 06:23:49;;;;;;;14.47;3.43;;;;;;;;;;5033321;28;20291;-64
2023/04/03 06:26:14;;;;;;;21.20;3.40;;;;;;;;;;5018158;28;20033;-63
2023/04/03 06:28:39;;;;;;;15.77;3.50;;;;;;;;;;5035165;28;20056;-62
2023/04/03 06:31:05;;;;;;;18.20;4.03;;;;;;;;;;5016065;28;20033;-64
2023/04/03 06:33:30;;;;;;;13.37;3.10;;;;;;;;;;5033611;28;20037;-63
2023/04/03 06:35:57;;;;;;;17.10;3.90;;;;;;;;;;5028982;28;20041;-64
2023/04/03 06:38:22;;;;;;;15.05;2.85;;;;;;;;;;5034015;28;20099;-61
2023/04/03 06:40:47;;;;;;;23.73;3.70;;;;;;;;;;5034268;28;20052;-63
2023/04/03 06:43:12;;;;;;;16.13;3.53;;;;;;;;;;5033320;28;20037;-63
2023/04/03 06:45:37;;;;;;;16.17;3.20;;;;;;;;;;5034260;28;20029;-63
2023/04/03 06:48:03;;;;;;;16.93;3.97;;;;;;;;;;5032274;28;20834;-64
2023/04/03 06:50:28;;;;;;;15.77;3.30;;;;;;;;;;5036775;28;20386;-64
2023/04/03 06:52:53;;;;;;;13.53;3.63;;;;;;;;;;5034192;28;20135;-63
2023/04/03 06:55:19;;;;;;;13.97;3.00;;;;;;;;;;5034063;28;20048;-63
2023/04/03 06:57:45;;;;;;;15.30;3.28;;;;;;;;;;5013379;28;20795;-63
2023/04/03 07:00:10;;;;;;;12.85;2.95;;;;;;;;;;5015568;28;20048;-63
2023/04/03 07:02:36;;;;;;;14.80;3.53;;;;;;;;;;5033000;28;20120;-64
2023/04/03 07:05:01;;;;;;;12.83;3.03;;;;;;;;;;5017096;28;20083;-63
2023/04/03 07:07:26;;;;;;;10.48;2.92;;;;;;;;;;5034237;28;20029;-63
2023/04/03 07:09:51;;;;;;;10.57;3.20;;;;;;;;;;5034586;28;20079;-64
2023/04/03 07:12:17;;;;;;;13.68;3.40;;;;;;;;;;5034377;28;20616;-63
2023/04/03 07:14:42;;;;;;;13.45;3.00;;;;;;;;;;5035248;28;20059;-63
2023/04/03 07:17:07;;;;;;;12.95;3.45;;;;;;;;;;5016580;28;20041;-63
2023/04/03 07:19:33;;;;;;;10.27;3.13;;;;;;;;;;5036561;28;20048;-64
2023/04/03 07:21:58;;;;;;;12.83;3.23;;;;;;;;;;5032401;28;20829;-64
2023/04/03 07:24:23;;;;;;;11.67;3.30;;;;;;;;;;5013199;28;20432;-62
2023/04/03 07:26:49;;;;;;;11.67;3.40;;;;;;;;;;5028631;28;20558;-63
2023/04/03 07:29:14;;;;;;;10.77;3.15;;;;;;;;;;5011337;28;20347;-64
2023/04/03 07:31:41;;;;;;;14.13;3.47;;;;;;;;;;5015232;28;20498;-63
2023/04/03 07:34:06;;;;;;;10.55;2.83;;;;;;;;;;5035409;28;20032;-63
2023/04/03 07:36:33;;;;;;;9.13;2.97;;;;;;;;;;5010440;28;20065;-64
2023/04/03 07:38:58;;;;;;;11.20;3.00;;;;;;;;;;5012437;28;20324;-64
2023/04/03 07:41:23;;;;;;;9.70;2.83;;;;;;;;;;5035443;28;20807;-63
2023/04/03 07:43:49;;;;;;;9.75;3.05;;;;;;;;;;5033989;28;20071;-63
2023/04/03 07:46:15;;;;;;;10.25;3.33;;;;;;;;;;5034398;28;20506;-62
2023/04/03 07:48:40;;;;;;;14.25;3.50;;;;;;;;;;5035801;28;20409;-63
2023/04/03 07:51:05;;;;;;;7.97;2.70;;;;;;;;;;5034703;28;20128;-63
2023/04/03 07:53:30;;;;;;;10.00;2.80;;;;;;;;;;5034882;28;20119;-62
2023/04/03 07:55:56;;;;;;;10.80;3.08;;;;;;;;;;5035718;28;20287;-63
2023/04/03 07:58:22;;;;;;;9.90;2.67;;;;;;;;;;5034576;28;20077;-62
2023/04/03 08:00:47;;;;;;;8.82;3.00;;;;;;;;;;5035843;28;20064;-63
2023/04/03 08:03:12;;;;;;;8.82;2.67;;;;;;;;;;5038082;28;21932;-63
2023/04/03 08:05:41;;;;;;;7.65;2.63;;;;;;;;;;5037350;28;20493;-62
2023/04/03 08:08:06;;;;;;;10.82;2.85;;;;;;;;;;5020617;28;20048;-63
2023/04/03 08:10:32;;;;;;;9.27;2.88;;;;;;;;;;5034652;28;20128;-63
2023/04/03 08:12:57;;;;;;;7.07;2.40;;;;;;;;;;5043363;28;20067;-62
2023/04/03 08:15:23;;;;;;;10.77;2.97;;;;;;;;;;5037028;28;20080;-62
2023/04/03 08:17:48;;;;;;;8.90;2.87;;;;;;;;;;5030725;28;20310;-62
2023/04/03 08:20:13;;;;;;;6.72;2.72;;;;;;;;;;5045529;28;20306;-63
2023/04/03 08:22:39;;;;;;;8.68;2.78;;;;;;;;;;5025744;28;20037;-62
2023/04/03 08:25:05;;;;;;;8.07;2.63;;;;;;;;;;5025545;28;20078;-62
2023/04/03 08:27:30;;;;;;;9.40;2.70;;;;;;;;;;5036466;28;20036;-62
2023/04/03 08:29:56;;;;;;;7.25;2.50;;;;;;;;;;5016617;28;20124;-63
2023/04/03 08:32:22;;;;;;;6.03;2.35;;;;;;;;;;5037961;28;21126;-62
2023/04/03 08:34:47;;;;;;;8.10;2.60;;;;;;;;;;5041478;28;20405;-62
2023/04/03 08:37:12;;;;;;;6.87;2.47;;;;;;;;;;5037943;28;20148;-63
2023/04/03 08:39:37;;;;;;;6.43;2.75;;;;;;;;;;5028184;28;20057;-63
2023/04/03 08:42:07;;;;;;;6.10;2.70;;;;;;;;;;5010726;28;20017;-62
2023/04/03 08:44:37;;;;;;;6.43;2.53;;;;;;;;;;5010673;28;20434;-63
2023/04/03 08:47:06;;;;;;;7.68;2.70;;;;;;;;;;5025951;28;20296;-63
2023/04/03 08:49:40;;;;;;;5.25;2.25;;;;;;;;;;5033379;28;20046;-63
2023/04/03 08:52:09;;;;;;;5.25;2.60;;;;;;;;;;5036198;28;20105;-62
2023/04/03 08:54:35;;;;;;;5.95;2.83;;;;;;;;;;5007998;28;20044;-66
2023/04/03 08:57:01;;;;;;;6.88;2.50;;;;;;;;;;5015242;28;20070;-64
2023/04/03 08:59:27;;;;;;;6.50;2.92;;;;;;;;;;5028874;28;20041;-62
2023/04/03 09:01:52;;;;;;;6.00;2.78;;;;;;;;;;5035363;28;20044;-62
2023/04/03 09:04:18;;;;;;;5.33;2.60;;;;;;;;;;5040327;28;20033;-63
2023/04/03 09:06:46;;;;;;;6.43;2.55;;;;;;;;;;5026442;28;20031;-63
2023/04/03 09:09:31;;;;;;;6.97;2.40;;;;;;;;;;5010010;28;20509;-63
2023/04/03 09:12:00;;;;;;;6.63;2.85;;;;;;;;;;5008445;28;20056;-62
2023/04/03 09:14:44;;;;;;;4.93;2.47;;;;;;;;;;5025766;28;20040;-62
2023/04/03 09:17:28;;;;;;;5.05;2.25;;;;;;;;;;5029580;28;20160;-63
2023/04/03 09:20:08;;;;;;;7.07;2.80;;;;;;;;;;5033620;28;20795;-62
2023/04/03 09:22:34;;;;;;;5.43;2.40;;;;;;;;;;5032678;28;20059;-62
2023/04/03 09:25:12;;;;;;;6.32;2.85;;;;;;;;;;5018865;28;20118;-63
2023/04/03 09:27:37;;;;;;;4.53;2.42;;;;;;;;;;5038176;28;20567;-63
2023/04/03 09:30:03;;;;;;;6.85;2.83;;;;;;;;;;5035674;28;20041;-62
2023/04/03 09:32:32;;;;;;;5.55;2.50;;;;;;;;;;5035488;28;20044;-63
2023/04/03 09:34:59;;;;;;;5.20;2.30;;;;;;;;;;5013276;28;20047;-63
2023/04/03 09:37:38;;;;;;;5.78;2.50;;;;;;;;;;5016825;28;20037;-62
2023/04/03 09:40:04;;;;;;;5.57;2.40;;;;;;;;;;5015421;28;20040;-63
2023/04/03 09:42:30;;;;;;;5.28;2.60;;;;;;;;;;5032665;28;20044;-63
2023/04/03 09:45:05;;;;;;;4.32;2.40;;;;;;;;;;5011087;28;20048;-63
2023/04/03 09:47:33;;;;;;;4.50;2.20;;;;;;;;;;5030936;28;20444;-63
2023/04/03 09:50:29;;;;;;;5.78;2.20;;;;;;;;;;4999140;28;20332;-63
2023/04/03 09:52:54;;;;;;;5.75;2.10;;;;;;;;;;5000457;28;20473;-64
2023/04/03 09:55:27;;;;;;;4.35;2.20;;;;;;;;;;5035930;28;20048;-62
2023/04/03 09:57:52;;;;;;;4.72;2.50;;;;;;;;;;5018450;28;20041;-63
2023/04/03 10:00:21;;;;;;;6.90;2.97;;;;;;;;;;5017706;28;20446;-63
2023/04/03 10:02:49;;;;;;;6.13;2.47;;;;;;;;;;5036522;28;20087;-64
2023/04/03 10:05:28;;;;;;;4.70;2.17;;;;;;;;;;5018749;28;20378;-63
2023/04/03 10:08:06;;;;;;;5.22;2.28;;;;;;;;;;5018661;28;20094;-63
2023/04/03 10:10:31;;;;;;;5.55;2.30;;;;;;;;;;5035863;28;20025;-64
2023/04/03 10:13:07;;;;;;;4.53;2.30;;;;;;;;;;5034175;28;20538;-64
2023/04/03 10:15:55;;;;;;;5.15;2.60;;;;;;;;;;5033275;28;20921;-64
2023/04/03 10:18:27;;;;;;;3.97;2.33;;;;;;;;;;5015985;28;20096;-63
2023/04/03 10:20:53;;;;;;;6.13;2.67;;;;;;;;;;5033631;28;20029;-64
2023/04/03 10:23:20;;;;;;;3.58;2.10;;;;;;;;;;5035674;28;20040;-64
2023/04/03 10:26:00;;;;;;;4.38;2.15;;;;;;;;;;5001236;28;20036;-64
2023/04/03 10:28:30;;;;;;;3.88;2.10;;;;;;;;;;5028364;28;20646;-63
2023/04/03 10:31:01;;;;;;;4.18;2.33;;;;;;;;;;5000353;28;20094;-63
2023/04/03 10:33:36;;;;;;;4.28;2.15;;;;;;;;;;5002870;28;20049;-62
2023/04/03 10:36:16;;;;;;;4.00;2.15;;;;;;;;;;5034473;28;20041;-63
2023/04/03 10:38:55;;;;;;;4.20;2.22;;;;;;;;;;5033531;28;20465;-62
2023/04/03 10:41:39;;;;;;;4.47;2.10;;;;;;;;;;4998939;28;20045;-64
2023/04/03 10:44:16;;;;;;;3.13;1.98;;;;;;;;;;5037077;28;20029;-64
2023/04/03 10:46:43;;;;;;;4.45;2.22;;;;;;;;;;5015786;28;20056;-63
2023/04/03 10:49:27;;;;;;;3.53;1.88;;;;;;;;;;5036496;28;20468;-63
2023/04/03 10:52:11;;;;;;;4.07;2.08;;;;;;;;;;5035694;28;20041;-64
2023/04/03 10:54:48;;;;;;;3.92;2.15;;;;;;;;;;5035282;28;20045;-63
2023/04/03 10:57:13;;;;;;;5.53;2.30;;;;;;;;;;5033598;28;20036;-63
2023/04/03 10:59:46;;;;;;;3.60;2.00;;;;;;;;;;5018162;28;20036;-63
2023/04/03 11:02:15;;;;;;;3.38;2.10;;;;;;;;;;5014623;28;20128;-63
2023/04/03 11:04:40;;;;;;;4.50;1.88;;;;;;;;;;5012244;28;20088;-62
2023/04/03 11:07:08;;;;;;;3.58;2.55;;;;;;;;;;5013889;28;20104;-63
2023/04/03 11:09:37;;;;;;;3.63;2.00;;;;;;;;;;5013396;28;20040;-62
2023/04/03 11:12:16;;;;;;;4.32;2.20;;;;;;;;;;5016956;28;20083;-63
2023/04/03 11:14:42;;;;;;;4.00;2.28;;;;;;;;;;5034113;28;20652;-64
2023/04/03 11:17:13;;;;;;;3.88;2.00;;;;;;;;;;5016901;28;20037;-63
2023/04/03 11:19:46;;;;;;;4.60;2.25;;;;;;;;;;5036299;28;20928;-64
2023/04/03 11:22:11;;;;;;;4.45;2.20;;;;;;;;;;5017687;28;20064;-64
2023/04/03 11:24:36;;;;;;;5.00;2.20;;;;;;;;;;5035725;28;20064;-63
2023/04/03 11:27:04;;;;;;;3.78;1.98;;;;;;;;;;5016420;28;20069;-63
2023/04/03 11:29:31;;;;;;;3.05;1.75;;;;;;;;;;5033623;28;20056;-65
2023/04/03 11:31:57;;;;;;;2.65;1.88;;;;;;;;;;5014668;28;20033;-64
2023/04/03 11:34:43;;;;;;;3.83;2.00;;;;;;;;;;5033888;28;20030;-64
2023/04/03 11:37:21;;;;;;;3.53;1.88;;;;;;;;;;5004134;28;20105;-62
2023/04/03 11:39:50;;;;;;;4.47;2.13;;;;;;;;;;5023655;28;20037;-62
2023/04/03 11:42:27;;;;;;;3.58;2.15;;;;;;;;;;5045017;28;20067;-64
2023/04/03 11:45:13;;;;;;;3.80;2.20;;;;;;;;;;5027659;28;20037;-63
2023/04/03 11:47:45;;;;;;;3.72;2.33;;;;;;;;;;5037586;28;20048;-62
2023/04/03 11:50:29;;;;;;;3.50;2.10;;;;;;;;;;5039229;28;20060;-63
2023/04/03 11:52:55;;;;;;;4.10;2.22;;;;;;;;;;5038049;28;20048;-66
2023/04/03 11:55:23;;;;;;;3.92;2.47;;;;;;;;;;5003615;28;20021;-64
2023/04/03 11:58:00;;;;;;;5.00;2.35;;;;;;;;;;5019346;28;20069;-63
2023/04/03 12:00:47;;;;;;;3.17;1.80;;;;;;;;;;5037800;28;20106;-65
2023/04/03 12:03:25;;;;;;;3.63;1.92;;;;;;;;;;5016183;28;20056;-63
2023/04/03 12:06:11;;;;;;;4.22;2.17;;;;;;;;;;5037719;28;20537;-62
2023/04/03 12:08:39;;;;;;;3.08;2.00;;;;;;;;;;4967643;28;20473;-63
2023/04/03 12:13:36;;;;;;;4.03;2.13;;;;;;;;;;5038946;28;20059;-63
2023/04/03 12:16:03;;;;;;;3.20;1.70;;;;;;;;;;5039372;28;20037;-62
2023/04/03 12:18:31;;;;;;;4.05;1.80;;;;;;;;;;5004885;28;20330;-63
2023/04/03 12:20:57;;;;;;;4.88;2.22;;;;;;;;;;5040307;28;20079;-62
2023/04/03 12:23:32;;;;;;;4.60;1.85;;;;;;;;;;5045173;28;20426;-62
2023/04/03 12:26:16;;;;;;;2.85;1.90;;;;;;;;;;5011766;28;20028;-62
2023/04/03 12:28:42;;;;;;;2.90;1.85;;;;;;;;;;5046467;28;20037;-63
2023/04/03 12:31:07;;;;;;;3.30;1.98;;;;;;;;;;5036844;28;20158;-62
2023/04/03 12:33:57;;;;;;;2.88;1.80;;;;;;;;;;5010872;28;20083;-62
2023/04/03 12:36:28;;;;;;;3.30;1.98;;;;;;;;;;5044919;28;20048;-61
2023/04/03 12:39:10;;;;;;;3.20;1.92;;;;;;;;;;5012967;28;20028;-62
2023/04/03 12:41:45;;;;;;;2.70;1.73;;;;;;;;;;5017540;28;20067;-63
2023/04/03 12:44:18;;;;;;;3.42;1.92;;;;;;;;;;5037203;28;20037;-62
2023/04/03 12:46:45;;;;;;;3.58;1.80;;;;;;;;;;5011533;28;20057;-64
2023/04/03 12:49:28;;;;;;;4.60;2.00;;;;;;;;;;5038197;28;20059;-62
2023/04/03 12:51:54;;;;;;;3.30;1.80;;;;;;;;;;5042439;28;20120;-62
2023/04/03 12:54:21;;;;;;;3.45;2.15;;;;;;;;;;5045742;28;20301;-63
2023/04/03 12:56:46;;;;;;;3.47;2.00;;;;;;;;;;5007725;28;20025;-64
2023/04/03 12:59:13;;;;;;;2.97;2.00;;;;;;;;;;5030941;28;20621;-61
2023/04/03 13:01:38;;;;;;;2.78;1.80;;;;;;;;;;5028041;28;20087;-62
2023/04/03 13:04:04;;;;;;;4.50;2.10;;;;;;;;;;5007596;28;20076;-62
2023/04/03 13:06:33;;;;;;;3.55;1.88;;;;;;;;;;5045332;28;20044;-64
2023/04/03 13:09:02;;;;;;;3.45;1.65;;;;;;;;;;5036027;28;20055;-62
2023/04/03 13:11:30;;;;;;;3.40;2.03;;;;;;;;;;4999877;28;20783;-62
2023/04/03 13:14:03;;;;;;;3.78;1.73;;;;;;;;;;5011442;28;20128;-62
2023/04/03 13:16:28;;;;;;;3.53;1.80;;;;;;;;;;5020082;28;20040;-62
2023/04/03 13:18:54;;;;;;;3.50;1.60;;;;;;;;;;5038773;28;20089;-63
2023/04/03 13:21:20;;;;;;;2.97;1.65;;;;;;;;;;5046220;28;20609;-62
2023/04/03 13:23:46;;;;;;;3.83;2.00;;;;;;;;;;5026269;28;20045;-63
2023/04/03 13:26:12;;;;;;;3.58;1.90;;;;;;;;;;5025499;28;20040;-61
2023/04/03 13:28:37;;;;;;;4.07;1.90;;;;;;;;;;5035674;28;20505;-62
2023/04/03 13:31:04;;;;;;;3.10;1.80;;;;;;;;;;5027063;28;20279;-63
2023/04/03 13:33:31;;;;;;;3.53;1.60;;;;;;;;;;5012960;28;20076;-64
2023/04/03 13:36:01;;;;;;;2.45;1.50;;;;;;;;;;4999841;28;20048;-61
2023/04/03 13:38:27;;;;;;;3.45;1.85;;;;;;;;;;5005689;28;20139;-61
2023/04/03 13:40:56;;;;;;;2.33;1.60;;;;;;;;;;5045273;28;20029;-63
2023/04/03 13:43:23;;;;;;;2.30;1.80;;;;;;;;;;5023668;28;20037;-62
2023/04/03 13:46:04;;;;;;;3.55;1.85;;;;;;;;;;5035339;28;20061;-61
2023/04/03 13:48:40;;;;;;;3.03;1.65;;;;;;;;;;5018651;28;20128;-62
2023/04/03 13:51:25;;;;;;;2.97;1.77;;;;;;;;;;5006357;28;20508;-62
2023/04/03 13:53:51;;;;;;;3.13;1.80;;;;;;;;;;5031172;28;20017;-64
2023/04/03 13:56:27;;;;;;;2.20;1.42;;;;;;;;;;5032066;28;20090;-61
2023/04/03 13:58:53;;;;;;;3.72;1.73;;;;;;;;;;5010978;28;20418;-62
2023/04/03 14:01:20;;;;;;;3.47;1.60;;;;;;;;;;5036392;28;20045;-63
2023/04/03 14:03:45;;;;;;;3.10;1.55;;;;;;;;;;5010506;28;20041;-62
2023/04/03 14:06:11;;;;;;;4.18;2.00;;;;;;;;;;5035002;28;20098;-66
2023/04/03 14:08:37;;;;;;;2.40;1.70;;;;;;;;;;5035225;28;20041;-62
2023/04/03 14:11:02;;;;;;;2.63;1.90;;;;;;;;;;5029973;28;20045;-63
2023/04/03 14:13:29;;;;;;;3.80;1.73;;;;;;;;;;5042980;28;20314;-63
2023/04/03 14:15:54;;;;;;;2.70;1.60;;;;;;;;;;5042831;28;20279;-63
2023/04/03 14:18:20;;;;;;;2.43;1.80;;;;;;;;;;5039535;28;20048;-62
2023/04/03 14:20:45;;;;;;;2.65;1.70;;;;;;;;;;5038787;28;20040;-64
2023/04/03 14:23:10;;;;;;;2.90;1.63;;;;;;;;;;5025513;28;20068;-62
2023/04/03 14:25:36;;;;;;;3.00;1.60;;;;;;;;;;5046858;28;20135;-66
2023/04/03 14:28:01;;;;;;;2.42;1.67;;;;;;;;;;5040143;28;20091;-62
2023/04/03 14:30:27;;;;;;;5.03;2.00;;;;;;;;;;5025802;28;20576;-62
2023/04/03 14:32:53;;;;;;;30.33;6.03;;;;;;;;;;5038828;28;20279;-62
2023/04/03 14:35:18;;;;;;;13.13;3.53;;;;;;;;;;5034702;28;20103;-63
2023/04/03 14:37:44;;;;;;;14.98;3.53;;;;;;;;;;5043020;28;20078;-62
2023/04/03 14:40:11;;;;;;;12.88;3.08;;;;;;;;;;5028223;28;20981;-63
2023/04/03 14:42:36;;;;;;;11.80;2.80;;;;;;;;;;5033166;28;20137;-68
2023/04/03 14:45:03;;;;;;;10.43;3.13;;;;;;;;;;5056627;28;20065;-62
2023/04/03 14:47:29;;;;;;;10.68;2.70;;;;;;;;;;5040015;28;20060;-62